Time;durP1;ratioP1;P1;durP2;ratioP2;P2;SDS_P1;SDS_P2;PMS_P1;PMS_P2;Temp;Humidity;BMP_temperature;BMP_pressure;BME280_temperature;BME280_humidity;BME280_pressure;Samples;Min_cycle;Max_cycle;Signal;HPM_P1;HPM_P2
2022/05/17 00:01:25;;;;;;;2.05;1.60;;;17.30;55.70;;;;;;5061186;28;20129;-50
2022/05/17 00:03:52;;;;;;;1.75;1.63;;;17.30;55.70;;;;;;5052361;28;20045;-53
2022/05/17 00:06:20;;;;;;;1.85;1.75;;;17.20;55.70;;;;;;5066533;28;20044;-49
2022/05/17 00:08:47;;;;;;;4.57;1.73;;;17.20;55.80;;;;;;5069185;28;20040;-51
2022/05/17 00:11:15;;;;;;;2.60;1.90;;;17.20;55.80;;;;;;5061866;28;20377;-51
2022/05/17 00:13:42;;;;;;;8.05;1.80;;;17.20;55.90;;;;;;5069708;28;20090;-50
2022/05/17 00:16:09;;;;;;;2.08;1.98;;;17.10;55.80;;;;;;5063984;28;20450;-50
2022/05/17 00:18:36;;;;;;;1.95;1.73;;;17.10;55.90;;;;;;5067397;28;20541;-53
2022/05/17 00:21:04;;;;;;;1.80;1.70;;;17.10;55.90;;;;;;5061057;28;20064;-50
2022/05/17 00:23:31;;;;;;;2.95;1.75;;;17.00;55.80;;;;;;5069413;28;20094;-52
2022/05/17 00:25:57;;;;;;;3.35;1.60;;;17.00;55.80;;;;;;5066071;28;20036;-49
2022/05/17 00:28:26;;;;;;;2.40;2.20;;;17.00;55.90;;;;;;5065621;28;20558;-53
2022/05/17 00:30:53;;;;;;;1.67;1.58;;;16.90;55.80;;;;;;5045799;28;20064;-52
2022/05/17 00:33:21;;;;;;;1.63;1.52;;;16.90;55.80;;;;;;5069414;28;20070;-50
2022/05/17 00:35:49;;;;;;;2.45;2.25;;;16.90;55.90;;;;;;5061282;28;20489;-53
2022/05/17 00:38:16;;;;;;;3.00;1.90;;;16.90;56.00;;;;;;5066827;28;20044;-53
2022/05/17 00:40:43;;;;;;;1.60;1.50;;;16.80;56.10;;;;;;5062378;28;20025;-52
2022/05/17 00:43:20;;;;;;;1.80;1.70;;;16.80;56.10;;;;;;5062462;28;20207;-52
2022/05/17 00:45:49;;;;;;;2.35;2.15;;;16.80;56.20;;;;;;5064417;28;20036;-52
2022/05/17 00:48:18;;;;;;;3.17;2.17;;;16.80;56.20;;;;;;5057477;28;20408;-53
2022/05/17 00:50:49;;;;;;;2.80;1.92;;;16.70;56.30;;;;;;5053851;28;20581;-53
2022/05/17 00:53:33;;;;;;;2.85;1.85;;;16.70;56.30;;;;;;5071558;28;20048;-49
2022/05/17 00:56:02;;;;;;;2.58;1.60;;;16.60;57.00;;;;;;5068637;28;20462;-50
2022/05/17 00:58:48;;;;;;;1.98;1.85;;;16.60;56.10;;;;;;5065068;28;20436;-52
2022/05/17 01:01:21;;;;;;;3.90;2.00;;;16.60;56.70;;;;;;5072076;28;20083;-51
2022/05/17 01:04:12;;;;;;;2.67;1.75;;;16.60;56.40;;;;;;5069931;28;20569;-51
2022/05/17 01:07:07;;;;;;;1.83;1.73;;;16.50;56.80;;;;;;5064184;28;20056;-49
2022/05/17 01:09:33;;;;;;;2.72;2.03;;;16.50;56.50;;;;;;5068115;28;20048;-53
2022/05/17 01:12:00;;;;;;;2.30;2.10;;;16.50;56.30;;;;;;5071289;28;20106;-53
2022/05/17 01:17:15;;;;;;;2.20;2.00;;;16.40;56.70;;;;;;5063331;28;20041;-49
2022/05/17 01:19:43;;;;;;;2.05;1.95;;;16.30;56.50;;;;;;5053074;28;20044;-53
2022/05/17 01:22:10;;;;;;;3.00;2.50;;;16.30;56.70;;;;;;5071537;28;20068;-53
2022/05/17 01:24:37;;;;;;;2.78;1.95;;;16.30;56.70;;;;;;5063078;28;20040;-53
2022/05/17 01:27:28;;;;;;;4.57;2.15;;;16.30;56.90;;;;;;5072535;28;20123;-53
2022/05/17 01:29:55;;;;;;;2.33;2.20;;;16.30;57.30;;;;;;5067818;28;20071;-49
2022/05/17 01:32:22;;;;;;;2.70;2.10;;;16.30;57.10;;;;;;5068964;28;20079;-50
2022/05/17 01:34:50;;;;;;;2.17;2.00;;;16.20;57.80;;;;;;5063587;28;20044;-54
2022/05/17 01:37:17;;;;;;;3.58;2.20;;;16.20;57.20;;;;;;5050604;28;20504;-53
2022/05/17 01:39:46;;;;;;;3.38;2.10;;;16.20;57.40;;;;;;5053868;28;20029;-50
2022/05/17 01:42:15;;;;;;;2.88;2.33;;;16.20;57.60;;;;;;5063667;28;20048;-54
2022/05/17 01:44:43;;;;;;;4.85;2.63;;;16.20;57.40;;;;;;5033466;28;20090;-53
2022/05/17 01:47:11;;;;;;;2.33;2.13;;;16.20;57.50;;;;;;5052518;28;20053;-49
2022/05/17 01:49:38;;;;;;;3.25;2.20;;;16.20;57.30;;;;;;5069427;28;20071;-49
2022/05/17 01:52:06;;;;;;;3.00;2.25;;;16.20;57.40;;;;;;5067628;28;20523;-49
2022/05/17 01:54:33;;;;;;;5.82;2.35;;;16.10;57.40;;;;;;5062471;28;20041;-49
2022/05/17 01:57:00;;;;;;;2.00;1.90;;;16.10;57.40;;;;;;5071736;28;20044;-49
2022/05/17 01:59:27;;;;;;;3.90;2.83;;;16.10;57.40;;;;;;5071812;28;20098;-53
2022/05/17 02:01:54;;;;;;;2.35;2.20;;;16.10;58.00;;;;;;5053656;28;20070;-52
2022/05/17 02:04:24;;;;;;;3.33;2.33;;;16.00;57.30;;;;;;5066555;23;20054;-48
2022/05/17 02:06:51;;;;;;;4.43;2.60;;;16.00;57.50;;;;;;5005262;28;20036;-47
2022/05/17 02:09:17;;;;;;;2.67;1.67;;;16.00;57.50;;;;;;5018603;28;20053;-48
2022/05/17 02:11:44;;;;;;;5.65;2.47;;;16.00;57.50;;;;;;5019286;28;20076;-48
2022/05/17 02:14:11;;;;;;;2.00;1.90;;;15.90;57.60;;;;;;5023528;28;20049;-52
2022/05/17 02:16:39;;;;;;;3.85;2.45;;;16.00;57.60;;;;;;5038043;28;20124;-47
2022/05/17 02:19:06;;;;;;;3.72;2.15;;;15.90;57.70;;;;;;5039275;28;20037;-47
2022/05/17 02:21:35;;;;;;;3.08;2.28;;;15.90;57.70;;;;;;5042595;28;20037;-52
2022/05/17 02:24:04;;;;;;;3.13;2.45;;;15.90;57.90;;;;;;5051368;28;20076;-50
2022/05/17 02:26:31;;;;;;;2.40;2.13;;;15.90;57.90;;;;;;5043673;28;20072;-49
2022/05/17 02:28:58;;;;;;;2.22;2.03;;;15.90;58.00;;;;;;5035734;28;20461;-47
2022/05/17 02:31:25;;;;;;;3.38;2.63;;;15.90;58.00;;;;;;5041217;28;20045;-50
2022/05/17 02:33:52;;;;;;;2.97;2.45;;;15.90;58.10;;;;;;5047880;28;20033;-52
2022/05/17 02:36:19;;;;;;;3.78;3.08;;;15.90;58.20;;;;;;5030730;28;20509;-47
2022/05/17 02:38:45;;;;;;;2.42;2.22;;;15.80;58.30;;;;;;5044126;28;20447;-50
2022/05/17 02:41:13;;;;;;;2.65;2.45;;;15.90;58.50;;;;;;5033962;28;20037;-47
2022/05/17 02:43:39;;;;;;;2.72;2.50;;;15.90;58.70;;;;;;5038883;28;20049;-48
2022/05/17 02:46:07;;;;;;;2.08;1.90;;;15.90;58.90;;;;;;5028906;28;20521;-48
2022/05/17 02:48:34;;;;;;;2.78;2.13;;;15.90;59.00;;;;;;5032966;28;20519;-48
2022/05/17 02:51:09;;;;;;;2.22;2.03;;;15.90;59.10;;;;;;5043016;28;20118;-47
2022/05/17 02:53:35;;;;;;;3.05;2.00;;;16.00;60.00;;;;;;5047006;28;20064;-50
2022/05/17 02:56:03;;;;;;;4.40;3.22;;;16.00;59.70;;;;;;5033560;28;20068;-51
2022/05/17 02:58:30;;;;;;;2.10;1.90;;;16.00;59.70;;;;;;5042408;28;20072;-50
2022/05/17 03:00:57;;;;;;;4.07;2.85;;;16.00;59.80;;;;;;5050650;28;20122;-48
2022/05/17 03:03:25;;;;;;;2.15;1.95;;;16.10;59.80;;;;;;5044328;28;20059;-47
2022/05/17 03:05:55;;;;;;;3.65;2.50;;;16.10;59.90;;;;;;5023393;28;20064;-47
2022/05/17 03:08:22;;;;;;;4.85;2.50;;;16.10;60.10;;;;;;5039240;28;20389;-50
2022/05/17 03:10:51;;;;;;;2.38;2.15;;;16.20;60.10;;;;;;5044806;28;20491;-49
2022/05/17 03:13:18;;;;;;;2.20;2.05;;;16.20;60.70;;;;;;5039775;28;20116;-51
2022/05/17 03:15:44;;;;;;;2.42;2.25;;;16.20;60.70;;;;;;5030524;28;20065;-47
2022/05/17 03:18:11;;;;;;;3.17;1.92;;;16.20;60.00;;;;;;5021417;28;20050;-49
2022/05/17 03:20:38;;;;;;;3.88;3.58;;;16.20;60.00;;;;;;5032200;28;20108;-50
2022/05/17 03:23:05;;;;;;;9.75;2.67;;;16.20;60.00;;;;;;5038629;28;20445;-47
2022/05/17 03:25:32;;;;;;;2.75;2.47;;;16.20;60.00;;;;;;5042017;28;20090;-47
2022/05/17 03:27:59;;;;;;;3.25;2.80;;;16.30;60.00;;;;;;5040772;28;20064;-48
2022/05/17 03:30:27;;;;;;;2.70;2.50;;;16.20;60.00;;;;;;5051254;28;20080;-47
2022/05/17 03:32:54;;;;;;;2.45;2.25;;;16.20;60.10;;;;;;5040053;28;20042;-47
2022/05/17 03:35:23;;;;;;;3.58;2.10;;;16.30;60.40;;;;;;5040267;28;20051;-48
2022/05/17 03:37:50;;;;;;;3.92;2.60;;;16.30;60.50;;;;;;5044571;28;20041;-51
2022/05/17 03:40:18;;;;;;;2.38;2.17;;;16.30;60.60;;;;;;5045211;28;20188;-48
2022/05/17 03:42:45;;;;;;;2.83;2.55;;;16.30;60.80;;;;;;5018766;28;20049;-48
2022/05/17 03:45:13;;;;;;;2.67;2.47;;;16.40;61.10;;;;;;5035236;28;20046;-49
2022/05/17 03:47:40;;;;;;;3.40;2.40;;;16.40;61.30;;;;;;5038695;28;20049;-50
2022/05/17 03:50:08;;;;;;;3.70;2.50;;;16.40;61.60;;;;;;5030872;28;20041;-48
2022/05/17 03:52:35;;;;;;;3.08;2.50;;;16.50;61.90;;;;;;5030410;28;20037;-50
2022/05/17 03:55:05;;;;;;;2.92;2.55;;;16.50;62.00;;;;;;5038580;28;20489;-50
2022/05/17 03:57:32;;;;;;;2.40;2.20;;;16.60;62.50;;;;;;5042714;28;20068;-53
2022/05/17 03:59:58;;;;;;;3.50;2.55;;;16.60;62.40;;;;;;5047873;28;20052;-50
2022/05/17 04:02:26;;;;;;;2.80;2.40;;;16.70;62.70;;;;;;5034354;28;20037;-47
2022/05/17 04:04:53;;;;;;;4.60;3.05;;;16.80;63.00;;;;;;5038481;28;20037;-48
2022/05/17 04:07:23;;;;;;;3.75;2.88;;;16.80;63.20;;;;;;5048451;28;20143;-47
2022/05/17 04:09:49;;;;;;;3.33;2.75;;;16.90;63.40;;;;;;5045835;28;20095;-48
2022/05/17 04:12:17;;;;;;;3.20;2.70;;;16.90;63.50;;;;;;5032717;28;20041;-46
2022/05/17 04:14:43;;;;;;;4.80;2.83;;;17.00;63.80;;;;;;5041491;28;20082;-50
2022/05/17 04:17:10;;;;;;;4.20;3.10;;;17.10;63.80;;;;;;5035794;28;20041;-47
2022/05/17 04:19:37;;;;;;;4.93;2.92;;;17.10;63.90;;;;;;5033628;28;20445;-48
2022/05/17 04:22:09;;;;;;;3.55;2.90;;;17.20;64.00;;;;;;5035211;28;20045;-51
2022/05/17 04:24:35;;;;;;;4.65;3.22;;;17.30;64.50;;;;;;5033962;28;20037;-51
2022/05/17 04:27:03;;;;;;;3.13;2.83;;;17.30;64.10;;;;;;5034002;28;20045;-50
2022/05/17 04:29:29;;;;;;;4.88;3.42;;;17.40;64.20;;;;;;5043998;28;20041;-47
2022/05/17 04:31:56;;;;;;;3.72;3.30;;;17.50;64.20;;;;;;5045604;28;20072;-48
2022/05/17 04:34:23;;;;;;;6.25;3.33;;;17.50;64.30;;;;;;5046022;28;20413;-51
2022/05/17 04:36:51;;;;;;;4.20;3.80;;;17.60;64.40;;;;;;5020974;28;20038;-51
2022/05/17 04:39:18;;;;;;;5.30;4.22;;;17.60;64.40;;;;;;5028404;28;20069;-48
2022/05/17 04:41:44;;;;;;;4.28;3.78;;;17.70;64.40;;;;;;5032203;28;20103;-47
2022/05/17 04:44:11;;;;;;;4.07;3.58;;;17.70;64.30;;;;;;5032270;28;20046;-49
2022/05/17 04:46:38;;;;;;;4.22;3.35;;;17.80;64.20;;;;;;5029866;28;20125;-49
2022/05/17 04:49:04;;;;;;;4.85;3.58;;;17.80;64.10;;;;;;5013201;28;20100;-47
2022/05/17 04:51:32;;;;;;;6.10;4.00;;;17.80;64.00;;;;;;5030637;28;20176;-47
2022/05/17 04:54:00;;;;;;;5.13;4.05;;;17.90;64.00;;;;;;5031528;28;20135;-51
2022/05/17 04:56:27;;;;;;;4.95;3.50;;;17.90;63.90;;;;;;5029712;28;20033;-51
2022/05/17 04:58:54;;;;;;;6.80;4.25;;;17.90;63.90;;;;;;5028219;28;20064;-49
2022/05/17 05:01:21;;;;;;;4.97;3.40;;;18.00;64.10;;;;;;5032315;28;20092;-47
2022/05/17 05:03:48;;;;;;;4.78;3.60;;;18.00;64.10;;;;;;5032334;28;20142;-47
2022/05/17 05:06:15;;;;;;;5.28;3.95;;;18.00;64.40;;;;;;4988536;28;20045;-47
2022/05/17 05:08:41;;;;;;;5.00;3.28;;;18.10;64.60;;;;;;5039765;28;20044;-49
2022/05/17 05:11:08;;;;;;;4.93;3.47;;;18.10;64.70;;;;;;5049336;28;20045;-47
2022/05/17 05:13:35;;;;;;;5.32;3.42;;;18.20;64.60;;;;;;5048690;28;20045;-47
2022/05/17 05:16:02;;;;;;;4.55;3.85;;;18.30;64.70;;;;;;5039761;28;20041;-48
2022/05/17 05:19:19;;;;;;;4.20;3.83;;;18.40;64.70;;;;;;5037728;28;20048;-49
2022/05/17 05:21:46;;;;;;;4.13;3.67;;;18.40;65.20;;;;;;5016265;28;20077;-46
2022/05/17 05:24:13;;;;;;;4.28;3.33;;;18.50;64.20;;;;;;5041442;28;20151;-47
2022/05/17 05:26:40;;;;;;;6.47;4.28;;;18.50;64.20;;;;;;5038619;28;20124;-47
2022/05/17 05:29:10;;;;;;;6.80;4.20;;;18.60;64.30;;;;;;5029168;28;20069;-48
2022/05/17 05:31:37;;;;;;;5.28;3.72;;;18.60;64.30;;;;;;5029333;28;20044;-49
2022/05/17 05:34:04;;;;;;;5.03;4.00;;;18.70;64.00;;;;;;5039829;28;20049;-51
2022/05/17 05:36:30;;;;;;;5.88;4.43;;;18.70;64.00;;;;;;5031485;28;20049;-53
2022/05/17 05:38:57;;;;;;;6.03;4.68;;;18.80;63.90;;;;;;5038678;28;20034;-50
2022/05/17 05:41:24;;;;;;;5.32;4.25;;;18.80;64.10;;;;;;5043915;28;20073;-50
2022/05/17 05:43:51;;;;;;;9.02;4.88;;;18.90;64.00;;;;;;5032965;28;20036;-49
2022/05/17 05:46:19;;;;;;;8.25;5.13;;;19.00;64.10;;;;;;5031777;28;20643;-54
2022/05/17 05:48:46;;;;;;;6.20;5.60;;;19.00;64.20;;;;;;5036297;28;20111;-51
2022/05/17 05:51:13;;;;;;;8.18;5.07;;;19.10;65.10;;;;;;5050179;28;20077;-50
2022/05/17 05:53:39;;;;;;;7.90;4.25;;;19.20;65.10;;;;;;5027834;28;20053;-49
2022/05/17 05:56:06;;;;;;;10.82;4.43;;;19.30;64.30;;;;;;5043793;28;20124;-47
2022/05/17 05:58:36;;;;;;;8.35;4.13;;;19.40;64.20;;;;;;5041182;28;20053;-51
2022/05/17 06:01:03;;;;;;;9.15;4.95;;;19.60;64.30;;;;;;5026538;28;20049;-47
2022/05/17 06:03:30;;;;;;;7.97;4.15;;;19.60;64.10;;;;;;5030024;28;20049;-48
2022/05/17 06:05:57;;;;;;;8.13;4.25;;;19.80;63.70;;;;;;5036837;28;20103;-49
2022/05/17 06:08:24;;;;;;;7.15;4.80;;;19.90;63.80;;;;;;5047262;28;20441;-52
2022/05/17 06:10:50;;;;;;;5.38;3.38;;;20.00;63.80;;;;;;5039816;28;20469;-51
2022/05/17 06:13:18;;;;;;;8.85;4.40;;;20.20;63.50;;;;;;5030180;28;20103;-49
2022/05/17 06:15:46;;;;;;;9.60;5.60;;;20.20;63.70;;;;;;5023027;28;20095;-53
2022/05/17 06:18:14;;;;;;;7.75;4.88;;;20.40;63.80;;;;;;5039836;28;20037;-49
2022/05/17 06:20:41;;;;;;;10.90;5.07;;;20.50;63.40;;;;;;5028447;28;20046;-51
2022/05/17 06:23:10;;;;;;;8.68;4.97;;;20.60;63.20;;;;;;5025928;28;20468;-49
2022/05/17 06:25:38;;;;;;;9.20;5.32;;;20.70;62.90;;;;;;5040229;28;20764;-48
2022/05/17 06:28:05;;;;;;;11.23;5.38;;;20.80;62.80;;;;;;5042422;28;20076;-51
2022/05/17 06:30:32;;;;;;;6.75;4.38;;;20.90;63.20;;;;;;5011766;28;20114;-48
2022/05/17 06:33:01;;;;;;;6.70;5.03;;;21.00;62.40;;;;;;5033652;28;20046;-49
2022/05/17 06:35:27;;;;;;;7.97;4.63;;;21.10;62.50;;;;;;5039130;28;20096;-52
2022/05/17 06:37:54;;;;;;;11.45;5.05;;;21.20;61.80;;;;;;5039749;28;20505;-49
2022/05/17 06:40:21;;;;;;;9.15;4.05;;;21.20;61.60;;;;;;5029456;28;20075;-51
2022/05/17 06:42:47;;;;;;;11.27;5.03;;;21.30;61.60;;;;;;5033337;28;20509;-51
2022/05/17 06:45:14;;;;;;;7.82;4.53;;;21.40;61.30;;;;;;5034682;28;20064;-52
2022/05/17 06:47:42;;;;;;;5.68;4.13;;;21.50;61.30;;;;;;5024263;28;20041;-53
2022/05/17 06:50:10;;;;;;;5.55;3.50;;;21.60;61.30;;;;;;5028854;28;20528;-49
2022/05/17 06:52:37;;;;;;;7.40;4.30;;;21.70;61.00;;;;;;5029238;28;20044;-51
2022/05/17 06:55:06;;;;;;;5.97;3.58;;;21.80;60.50;;;;;;5029546;28;20107;-49
2022/05/17 06:57:35;;;;;;;4.57;3.65;;;21.80;60.30;;;;;;5030967;28;20078;-50
2022/05/17 07:00:05;;;;;;;10.65;3.92;;;21.90;60.10;;;;;;5031187;28;20409;-49
2022/05/17 07:02:35;;;;;;;7.03;3.53;;;21.90;60.00;;;;;;5028586;28;20029;-54
2022/05/17 07:05:02;;;;;;;7.00;4.78;;;22.00;59.90;;;;;;5036622;28;20124;-51
2022/05/17 07:07:35;;;;;;;6.18;3.30;;;22.10;59.90;;;;;;5037184;28;20045;-49
2022/05/17 07:13:08;;;;;;;5.22;3.08;;;22.20;59.70;;;;;;5032427;28;20033;-50
2022/05/17 07:15:37;;;;;;;5.00;3.28;;;22.30;59.40;;;;;;5025764;28;20037;-50
2022/05/17 07:18:04;;;;;;;5.78;3.35;;;22.40;58.80;;;;;;5030753;28;20053;-52
2022/05/17 07:20:32;;;;;;;8.18;2.83;;;22.50;58.60;;;;;;5029862;28;20137;-49
2022/05/17 07:22:59;;;;;;;7.45;3.15;;;22.60;58.90;;;;;;5036517;28;20102;-50
2022/05/17 07:25:26;;;;;;;5.95;2.80;;;22.70;59.40;;;;;;5046741;28;20103;-48
2022/05/17 07:27:53;;;;;;;2.78;2.45;;;22.80;58.30;;;;;;5027266;28;20873;-51
2022/05/17 07:30:19;;;;;;;6.13;2.95;;;22.90;57.70;;;;;;5036602;28;20042;-47
2022/05/17 07:32:46;;;;;;;5.68;2.15;;;23.00;57.60;;;;;;5029328;28;20509;-48
2022/05/17 07:35:14;;;;;;;5.85;2.42;;;23.10;57.50;;;;;;5027021;28;20497;-48
2022/05/17 07:37:41;;;;;;;5.55;2.60;;;23.30;57.10;;;;;;5012310;28;20038;-51
2022/05/17 07:40:10;;;;;;;4.55;2.35;;;23.40;56.90;;;;;;5028924;28;20037;-52
2022/05/17 07:42:36;;;;;;;5.60;2.72;;;23.50;56.90;;;;;;5024978;28;20116;-51
2022/05/17 07:45:04;;;;;;;6.25;2.50;;;23.60;56.90;;;;;;5026283;28;20037;-55
2022/05/17 07:47:30;;;;;;;6.88;1.88;;;23.70;56.40;;;;;;5029147;28;20587;-50
2022/05/17 07:49:59;;;;;;;2.58;1.60;;;23.80;55.60;;;;;;5028290;28;20033;-50
2022/05/17 07:52:26;;;;;;;4.32;1.70;;;23.80;55.20;;;;;;5030253;28;20090;-51
2022/05/17 07:54:53;;;;;;;3.75;1.90;;;23.90;55.30;;;;;;5029898;28;20128;-48
2022/05/17 07:57:22;;;;;;;4.68;1.80;;;24.00;54.70;;;;;;5029869;28;20084;-50
2022/05/17 07:59:49;;;;;;;3.40;1.77;;;24.10;54.90;;;;;;5036858;28;20076;-52
2022/05/17 08:02:16;;;;;;;1.95;1.35;;;24.20;54.70;;;;;;5038330;28;20165;-49
2022/05/17 08:04:43;;;;;;;5.70;2.10;;;24.30;54.40;;;;;;5012227;28;20091;-52
2022/05/17 08:07:10;;;;;;;4.82;2.33;;;24.40;54.00;;;;;;5046735;23;20049;-49
2022/05/17 08:09:37;;;;;;;6.82;2.33;;;24.40;54.50;;;;;;5009587;28;20042;-49
2022/05/17 08:12:07;;;;;;;2.17;1.30;;;24.50;54.20;;;;;;5008771;28;20046;-47
2022/05/17 08:14:37;;;;;;;3.83;1.35;;;24.60;52.70;;;;;;5008376;28;20115;-50
2022/05/17 08:17:07;;;;;;;2.42;1.30;;;24.70;52.30;;;;;;5005465;28;20064;-52
2022/05/17 08:19:36;;;;;;;6.30;1.40;;;24.90;52.00;;;;;;5043660;28;20567;-47
2022/05/17 08:22:05;;;;;;;3.15;1.15;;;24.90;51.40;;;;;;5031122;28;20033;-49
2022/05/17 08:27:31;;;;;;;2.58;1.52;;;24.90;50.90;;;;;;5027794;28;20456;-49
2022/05/17 08:27:31;;;;;;;6.57;1.60;;;25.10;50.90;;;;;;5029208;28;20513;-49
2022/05/17 08:30:00;;;;;;;3.35;1.52;;;25.10;51.30;;;;;;5028098;28;20124;-49
2022/05/17 08:35:12;;;;;;;5.00;2.20;;;25.20;50.20;;;;;;5038449;28;20049;-51
2022/05/17 08:37:39;;;;;;;4.43;1.13;;;25.30;50.30;;;;;;5029298;28;20072;-51
2022/05/17 08:40:21;;;;;;;2.60;0.98;;;25.40;49.50;;;;;;5028787;28;20134;-51
2022/05/17 08:43:29;;;;;;;4.25;1.10;;;25.50;48.50;;;;;;5025112;28;20044;-51
2022/05/17 08:46:05;;;;;;;2.67;1.08;;;25.60;49.90;;;;;;4938233;29;20054;-49
2022/05/17 08:48:52;;;;;;;4.63;1.17;;;25.70;49.20;;;;;;5013972;28;20156;-52
2022/05/17 08:51:31;;;;;;;3.90;1.23;;;25.80;48.70;;;;;;5026712;28;20296;-51
2022/05/17 08:53:57;;;;;;;7.15;3.30;;;25.90;48.40;;;;;;5021032;28;20038;-50
2022/05/17 08:56:28;;;;;;;6.88;1.50;;;26.00;48.90;;;;;;5026498;28;20517;-54
2022/05/17 08:58:56;;;;;;;2.25;1.27;;;26.00;49.30;;;;;;5030507;28;20038;-50
2022/05/17 09:01:33;;;;;;;4.22;1.80;;;26.10;48.90;;;;;;5024339;28;20092;-51
2022/05/17 09:04:35;;;;;;;4.47;1.00;;;26.20;47.80;;;;;;5030522;28;20385;-51
2022/05/17 09:07:18;;;;;;;4.82;1.65;;;26.20;47.60;;;;;;5026849;28;20107;-52
2022/05/17 09:10:04;;;;;;;3.03;1.10;;;26.30;48.40;;;;;;5029998;28;20033;-52
2022/05/17 09:12:40;;;;;;;2.72;1.15;;;26.30;48.20;;;;;;5032974;28;20567;-52
2022/05/17 09:15:07;;;;;;;3.13;1.30;;;26.40;47.30;;;;;;5029787;28;20509;-51
2022/05/17 09:17:35;;;;;;;4.22;1.42;;;26.40;47.90;;;;;;5032464;28;20052;-51
2022/05/17 09:20:03;;;;;;;2.50;1.00;;;26.40;48.10;;;;;;5026030;28;20040;-49
2022/05/17 09:22:30;;;;;;;1.85;0.93;;;26.40;47.30;;;;;;5041464;28;20121;-51
2022/05/17 09:24:59;;;;;;;3.25;1.10;;;26.40;47.10;;;;;;5030606;28;20061;-52
2022/05/17 09:27:35;;;;;;;2.22;1.10;;;26.40;47.60;;;;;;5031828;28;20045;-49
2022/05/17 09:30:26;;;;;;;3.13;1.52;;;26.50;47.80;;;;;;5031035;28;20123;-49
2022/05/17 09:33:21;;;;;;;4.88;1.63;;;26.50;47.40;;;;;;5029746;28;20100;-51
2022/05/17 09:36:00;;;;;;;3.58;1.30;;;26.60;47.70;;;;;;5011056;28;20065;-51
2022/05/17 09:38:32;;;;;;;5.13;1.40;;;26.60;47.50;;;;;;5029908;28;20110;-48
2022/05/17 09:40:59;;;;;;;4.40;1.42;;;26.70;47.80;;;;;;5034348;28;20108;-50
2022/05/17 09:43:50;;;;;;;6.53;1.52;;;26.80;47.60;;;;;;5031254;28;20041;-51
2022/05/17 09:46:44;;;;;;;6.18;1.48;;;26.90;47.10;;;;;;5029878;28;20045;-49
2022/05/17 09:52:34;;;;;;;3.92;1.20;;;27.10;47.40;;;;;;5021106;28;20537;-53
2022/05/17 09:55:28;;;;;;;6.28;1.45;;;27.20;47.20;;;;;;5030345;28;20503;-52
2022/05/17 09:58:00;;;;;;;5.82;1.55;;;27.20;46.80;;;;;;5029896;28;20567;-51
2022/05/17 10:00:34;;;;;;;5.35;1.80;;;27.30;46.60;;;;;;5033699;28;20045;-48
2022/05/17 10:03:19;;;;;;;7.40;1.92;;;27.40;46.00;;;;;;5029614;28;20033;-48
2022/05/17 10:06:05;;;;;;;7.13;1.30;;;27.50;45.60;;;;;;5026355;28;20116;-52
2022/05/17 10:08:59;;;;;;;4.43;1.55;;;27.50;45.70;;;;;;5033614;28;20095;-52
2022/05/17 10:11:27;;;;;;;4.00;1.58;;;27.60;46.00;;;;;;5029626;28;20095;-53
2022/05/17 10:13:58;;;;;;;9.95;1.95;;;27.60;46.20;;;;;;5027593;28;20080;-52
2022/05/17 10:16:39;;;;;;;4.65;1.85;;;27.60;44.90;;;;;;5025369;28;20069;-53
2022/05/17 10:19:27;;;;;;;12.23;1.77;;;27.70;44.40;;;;;;5030757;28;20045;-51
2022/05/17 10:22:01;;;;;;;5.10;1.50;;;27.70;44.80;;;;;;5018621;28;20046;-51
2022/05/17 10:24:49;;;;;;;4.57;1.17;;;27.70;44.80;;;;;;5020343;28;20157;-53
2022/05/17 10:27:18;;;;;;;1.95;1.38;;;27.70;44.80;;;;;;5022775;28;20457;-53
2022/05/17 10:29:55;;;;;;;4.90;1.40;;;27.70;44.60;;;;;;5030183;28;20037;-52
2022/05/17 10:32:59;;;;;;;1.95;0.77;;;27.70;45.20;;;;;;5030520;28;20111;-54
2022/05/17 10:35:31;;;;;;;3.10;1.38;;;27.70;44.70;;;;;;5012094;28;20111;-52
2022/05/17 10:38:14;;;;;;;2.15;1.30;;;27.70;44.40;;;;;;5034775;28;20040;-52
2022/05/17 10:40:47;;;;;;;3.53;0.93;;;27.70;44.70;;;;;;5021950;28;20378;-53
2022/05/17 10:43:26;;;;;;;3.70;0.98;;;27.80;44.50;;;;;;5028963;28;20041;-54
2022/05/17 10:46:01;;;;;;;4.20;1.10;;;27.90;44.30;;;;;;5037185;28;20041;-54
2022/05/17 10:48:40;;;;;;;2.83;0.90;;;28.00;43.70;;;;;;5038211;28;20041;-53
2022/05/17 10:51:43;;;;;;;4.00;1.20;;;28.10;43.40;;;;;;5030855;28;20091;-54
2022/05/17 10:54:13;;;;;;;2.15;1.17;;;28.20;44.00;;;;;;5027716;28;20092;-53
2022/05/17 10:57:00;;;;;;;2.05;0.90;;;28.30;43.70;;;;;;5031698;28;20041;-53
2022/05/17 10:59:39;;;;;;;2.67;0.98;;;28.40;43.30;;;;;;5030457;28;20053;-54
2022/05/17 11:02:39;;;;;;;3.92;1.00;;;28.50;43.30;;;;;;5021652;28;20046;-53
2022/05/17 11:05:34;;;;;;;4.95;1.35;;;28.60;43.20;;;;;;5033579;28;20120;-54
2022/05/17 11:08:22;;;;;;;3.00;0.98;;;28.80;43.10;;;;;;5029032;28;20041;-54
2022/05/17 11:11:15;;;;;;;3.55;0.57;;;28.90;42.60;;;;;;5030817;28;20494;-51
2022/05/17 11:13:52;;;;;;;2.63;1.13;;;29.00;42.60;;;;;;5027530;28;20041;-53
2022/05/17 11:16:50;;;;;;;1.52;0.70;;;29.10;42.20;;;;;;5029675;28;20037;-49
2022/05/17 11:19:28;;;;;;;5.20;0.90;;;29.20;40.90;;;;;;5030087;28;20041;-50
2022/05/17 11:22:06;;;;;;;3.80;1.45;;;29.30;41.80;;;;;;5032924;28;20041;-52
2022/05/17 11:24:47;;;;;;;2.83;0.68;;;29.30;41.50;;;;;;5029371;28;20100;-53
2022/05/17 11:27:36;;;;;;;3.25;1.10;;;29.40;41.50;;;;;;5029846;28;20045;-54
2022/05/17 11:30:20;;;;;;;2.60;0.98;;;29.50;41.10;;;;;;5025510;28;20056;-51
2022/05/17 11:33:09;;;;;;;2.55;0.90;;;29.50;40.90;;;;;;5034172;28;20116;-53
2022/05/17 11:35:39;;;;;;;3.63;0.93;;;29.60;40.90;;;;;;5027446;28;20037;-53
2022/05/17 11:38:17;;;;;;;2.90;0.80;;;29.50;41.20;;;;;;5029213;28;20460;-53
2022/05/17 11:40:47;;;;;;;2.63;0.70;;;29.50;40.60;;;;;;5032045;28;20033;-53
2022/05/17 11:43:43;;;;;;;2.60;1.02;;;29.40;41.20;;;;;;5029494;28;20045;-54
2022/05/17 11:46:28;;;;;;;2.17;0.73;;;29.40;40.90;;;;;;5029744;28;20037;-52
2022/05/17 11:48:57;;;;;;;2.05;0.70;;;29.30;40.50;;;;;;5028976;28;20451;-52
2022/05/17 11:51:32;;;;;;;2.50;1.00;;;29.30;40.60;;;;;;5026820;28;20099;-49
2022/05/17 11:54:00;;;;;;;3.00;0.93;;;29.20;40.20;;;;;;5010582;28;20092;-51
2022/05/17 11:56:32;;;;;;;2.72;0.80;;;29.20;40.70;;;;;;5013013;28;20124;-53
2022/05/17 11:59:00;;;;;;;7.32;1.15;;;29.10;40.60;;;;;;5025952;28;20042;-52
2022/05/17 12:01:26;;;;;;;2.60;0.75;;;29.10;40.50;;;;;;5031234;28;20087;-54
2022/05/17 12:04:00;;;;;;;1.00;0.85;;;29.10;40.10;;;;;;5011403;28;20722;-49
2022/05/17 12:06:39;;;;;;;2.47;0.73;;;29.10;41.30;;;;;;5027185;28;20461;-51
2022/05/17 12:09:11;;;;;;;1.52;0.60;;;29.00;40.20;;;;;;5026693;28;20052;-53
2022/05/17 12:11:45;;;;;;;2.17;0.90;;;29.00;40.50;;;;;;5030637;28;20041;-53
2022/05/17 12:14:34;;;;;;;1.08;0.70;;;29.10;39.50;;;;;;5030007;28;20046;-51
2022/05/17 12:17:07;;;;;;;2.90;0.70;;;29.10;40.80;;;;;;5027098;28;20034;-50
2022/05/17 12:19:47;;;;;;;4.35;0.65;;;29.10;41.20;;;;;;5040424;28;20083;-50
2022/05/17 12:22:53;;;;;;;6.72;1.00;;;29.10;40.40;;;;;;5029273;28;20069;-51
2022/05/17 12:25:47;;;;;;;4.65;1.08;;;29.20;40.70;;;;;;5020907;28;20523;-51
2022/05/17 12:28:42;;;;;;;4.88;0.57;;;29.20;39.80;;;;;;5017150;28;20043;-53
2022/05/17 12:31:12;;;;;;;6.85;0.82;;;29.40;41.00;;;;;;5030198;28;20452;-54
2022/05/17 12:33:45;;;;;;;2.00;0.82;;;29.50;40.10;;;;;;5023945;28;20045;-54
2022/05/17 12:36:18;;;;;;;3.22;0.98;;;29.70;40.00;;;;;;5023330;28;20045;-52
2022/05/17 12:44:59;;;;;;;3.33;1.08;;;30.30;40.50;;;;;;5029760;28;20040;-52
2022/05/17 12:47:42;;;;;;;2.22;0.80;;;30.50;39.90;;;;;;5039680;28;20083;-53
2022/05/17 12:50:19;;;;;;;2.67;1.42;;;30.70;39.10;;;;;;5033717;28;20056;-53
2022/05/17 12:52:56;;;;;;;2.75;1.40;;;30.90;38.50;;;;;;5031340;28;20049;-53
2022/05/17 12:55:30;;;;;;;6.22;1.10;;;31.00;38.50;;;;;;5031228;28;20044;-51
2022/05/17 12:58:11;;;;;;;3.25;1.10;;;31.20;38.40;;;;;;5029210;28;20041;-49
2022/05/17 13:00:39;;;;;;;2.10;0.90;;;31.40;38.50;;;;;;5025729;28;20096;-52
2022/05/17 13:03:19;;;;;;;2.28;1.15;;;31.50;38.20;;;;;;5014948;28;20061;-52
2022/05/17 13:05:49;;;;;;;4.45;1.10;;;31.70;38.10;;;;;;5031089;28;20111;-52
2022/05/17 13:08:38;;;;;;;4.57;0.88;;;31.80;38.20;;;;;;5039978;28;20091;-54
2022/05/17 13:11:07;;;;;;;;;;;32.00;38.30;;;;;;5033426;28;20049;-53
2022/05/17 13:13:37;;;;;;;3.13;0.60;;;32.20;39.30;;;;;;5014003;28;19974;-54
2022/05/17 13:16:25;;;;;;;3.47;1.10;;;32.40;37.90;;;;;;5029048;28;20092;-54
2022/05/17 13:18:58;;;;;;;2.40;0.85;;;32.60;37.10;;;;;;5014576;28;20121;-53
2022/05/17 13:21:42;;;;;;;2.67;1.08;;;32.80;37.10;;;;;;5020647;28;20124;-53
2022/05/17 13:24:26;;;;;;;3.63;0.98;;;33.00;36.40;;;;;;5034135;28;20038;-52
2022/05/17 13:27:02;;;;;;;2.10;0.88;;;33.10;36.20;;;;;;5026201;28;20497;-53
2022/05/17 13:29:43;;;;;;;0.95;0.73;;;33.10;35.90;;;;;;5031128;28;20409;-51
2022/05/17 13:32:21;;;;;;;0.90;0.52;;;33.20;36.50;;;;;;5029703;28;20080;-50